Time,TemperatureF,DewpointF,PressureIn,WindDirection,WindDirectionDegrees,WindSpeedMPH,WindSpeedGustMPH,Humidity,HourlyPrecipIn,Conditions,Clouds,dailyrainin,SolarRadiationWatts/m^2,SoftwareType,DateUTC
2013-08-27 00:00:00,69.9,65.9,30.14,NNE,15,0.0,4.0,87,0.00,,,0.00,0,Wunderground v.1.15,2013-08-27 04:00:00,
2013-08-27 01:00:00,68.8,65.4,30.14,NNE,15,0.0,4.0,89,0.00,,,0.00,0,Wunderground v.1.15,2013-08-27 05:00:00,
2013-08-27 02:00:00,67.4,65.0,30.14,NNE,15,0.0,4.0,92,0.00,,,0.00,0,Wunderground v.1.15,2013-08-27 06:00:00,
2013-08-27 03:00:00,67.1,65.0,30.13,NNE,15,0.0,4.0,93,0.00,,,0.00,0,Wunderground v.1.15,2013-08-27 07:00:00,
2013-08-27 04:00:00,66.1,64.0,30.12,NNE,15,0.0,4.0,93,0.00,,,0.00,0,Wunderground v.1.15,2013-08-27 08:00:00,
2013-08-27 05:00:00,65.5,63.4,30.11,NNE,15,0.0,4.0,93,0.00,,,0.00,0,Wunderground v.1.15,2013-08-27 09:00:00,
2013-08-27 06:00:00,65.3,63.5,30.12,NNE,15,0.0,4.0,94,0.00,,,0.00,0,Wunderground v.1.15,2013-08-27 10:00:00,
2013-08-27 07:00:00,65.2,63.4,30.12,NNE,15,0.0,4.0,94,0.00,,,0.00,0,Wunderground v.1.15,2013-08-27 11:00:00,
2013-08-27 08:00:00,65.5,63.7,30.12,NNE,15,0.0,4.0,94,0.00,,,0.00,18,Wunderground v.1.15,2013-08-27 12:00:00,
2013-08-27 09:00:00,67.4,64.7,30.13,NNE,15,0.0,4.0,91,0.00,,,0.00,32,Wunderground v.1.15,2013-08-27 13:00:00,
2013-08-27 10:00:00,71.8,64.9,30.13,NNE,15,0.0,4.0,79,0.00,,,0.00,60,Wunderground v.1.15,2013-08-27 14:00:00,
2013-08-27 11:00:00,76.8,65.0,30.13,NNE,15,0.0,4.0,67,0.00,,,0.00,540,Wunderground v.1.15,2013-08-27 15:00:00,
2013-08-27 12:00:00,79.9,66.6,30.12,NNW,343,0.0,4.0,64,0.00,,,0.00,749,Wunderground v.1.15,2013-08-27 16:00:00,
2013-08-27 13:00:00,82.2,65.4,30.09,NNW,348,0.0,4.0,57,0.00,,,0.00,835,Wunderground v.1.15,2013-08-27 17:00:00,
2013-08-27 14:00:00,82.2,66.4,30.08,NNE,18,3.0,4.0,59,0.00,,,0.00,288,Wunderground v.1.15,2013-08-27 18:00:00,
2013-08-27 15:00:00,84.5,66.0,30.06,NNW,348,2.0,10.0,54,0.00,,,0.00,144,Wunderground v.1.15,2013-08-27 19:00:00,
2013-08-27 16:00:00,84.9,65.3,30.04,NNW,347,0.0,10.0,52,0.00,,,0.00,689,Wunderground v.1.15,2013-08-27 20:00:00,
2013-08-27 17:00:00,86.1,64.7,30.03,NE,36,2.0,10.0,49,0.00,,,0.00,519,Wunderground v.1.15,2013-08-27 21:00:00,
2013-08-27 18:00:00,86.1,64.7,30.03,NNE,28,1.0,10.0,49,0.00,,,0.00,348,Wunderground v.1.15,2013-08-27 22:00:00,
2013-08-27 19:00:00,83.0,65.7,30.02,NNE,28,0.0,10.0,56,0.00,,,0.00,30,Wunderground v.1.15,2013-08-27 23:00:00,
2013-08-27 20:00:00,80.5,68.5,30.02,NNE,28,0.0,10.0,67,0.00,,,0.00,5,Wunderground v.1.15,2013-08-28 00:00:00,
2013-08-27 21:00:00,77.7,68.4,30.02,NNE,28,0.0,10.0,73,0.00,,,0.00,0,Wunderground v.1.15,2013-08-28 01:00:00,